CPX258 Details

Departure: Grantley Adams International Airport (TBPB)
Arrival: Princess Juliana International Airport (TNCM) at N/A
Route: BGI UA632 ANU UB520 ELOPO ULUBA1
Notes:


Current Weather Information
TBPB 251100Z 10016KT 9999 FEW018 29/23 Q1015 NOSIG
TNCM 251100Z 09007KT 050V130 9999 SCT018 29/24 Q1017 A3005 NOSIG RMK HZ ALQDS